• Join FlightAware (Why Join?)
  • Login
  • US Flag 
03:10AM EDT


 

Airport Tracker/Info


-or-


 

Live Flight TrackerFlight Track Log ✈ RPA3224 ✈ 21-Apr-2013 ✈ KPBI - KDCA

Flight Track Log - Related Links

Times and Time Zones

All times are in EDT time to prevent confusion due to time zone crossing. See the RPA3224 flight status page for this flight to view local times or setup timezone preferences in your user account.

Time Position Orientation Groundspeed Altitude Reporting Facility
EDT Latitude Longitude Course Direction KTS MPH feet Rate Location/Type
07:11AM 26.8221 -80.1271 278° West  Level FlightAware Approximate
07:11AM 26.6931 -80.2306 326° Northwest 255 293 3,900  Level Miami Center
07:12AM 26.8496 -80.2492 299° West  Level FlightAware Approximate
07:12AM 26.7503 -80.2833 321° Northwest 263 303 6,700  Level Miami Center
07:13AM 26.8990 -80.3412 336° Northwest  Level FlightAware Approximate
07:13AM 26.8247 -80.3133 340° North 269 310 10,000  Level Miami Center
07:14AM 27.0032 -80.3932 336° Northwest  Level FlightAware Approximate
07:14AM 26.9011 -80.3506 337° Northwest 282 325 11,500  Level Miami Center
07:15AM 27.1073 -80.4453 336° Northwest  Level FlightAware Approximate
07:15AM 26.9900 -80.3906 338° Northwest 324 373 13,500  Level Miami Center
07:16AM 27.2041 -80.5114 326° Northwest  Level FlightAware Approximate
07:16AM 27.0747 -80.4258 340° North 353 406 15,900  Level Miami Center
07:17AM 27.1719 -80.4661 340° North 360 414 17,800 1,800 Climbing Miami Center
07:18AM 27.2669 -80.5089 338° Northwest 366 421 19,600 1,680 Climbing Miami Center
07:19AM 27.3703 -80.5519 340° North 379 436 21,200 1,740 Climbing Miami Center
07:20AM 27.4756 -80.5950 340° North 390 449 23,100 1,800 Climbing Miami Center
07:21AM 27.5831 -80.6408 339° North 395 455 24,900 1,500 Climbing Miami Center
07:22AM 27.6881 -80.6864 339° North 400 460 26,100 1,080 Climbing Miami Center
07:23AM 27.7997 -80.7322 340° North 411 473 27,100 960 Climbing Miami Center
07:24AM 27.9175 -80.7786 341° North 423 487 28,100 900 Climbing Miami Center
07:25AM 28.0350 -80.8297 339° North 438 504 28,900 840 Climbing Miami Center
07:26AM 28.1525 -80.8786 340° North 446 513 29,800 1,080 Climbing Miami Center
07:28AM 28.4069 -80.9833 340° North 443 510 32,300 960 Climbing Jacksonville Center
07:29AM 28.5142 -81.0356 337° Northwest 453 521 32,800 660 Climbing Jacksonville Center
07:30AM 28.6297 -81.0856 339° North 453 521 33,700 900 Climbing Jacksonville Center
07:31AM 28.7492 -81.1283 343° North 453 521 34,700 600 Climbing Jacksonville Center
07:32AM 28.8686 -81.1594 347° North 443 510 35,000 120 Climbing Jacksonville Center
07:33AM 28.9900 -81.1883 348° North 438 504 35,000  Level Jacksonville Center
07:34AM 29.1136 -81.2147 349° North 438 504 35,000  Level Jacksonville Center
07:35AM 29.2331 -81.2436 348° North 438 504 35,000  Level Jacksonville Center
07:36AM 29.3564 -81.2725 348° North 438 504 35,000  Level Jacksonville Center
07:37AM 29.4842 -81.3061 347° North 431 496 35,000  Level Jacksonville Center
07:38AM 29.6036 -81.3328 349° North 431 496 35,000  Level Jacksonville Center
07:39AM 29.7250 -81.3644 347° North 431 496 35,000  Level Jacksonville Center
07:40AM 29.8464 -81.3936 348° North 436 502 35,000  Level Jacksonville Center
07:41AM 29.9658 -81.4206 349° North 436 502 35,000  Level Jacksonville Center
07:42AM 30.0850 -81.4497 348° North 436 502 35,000  Level Jacksonville Center
07:43AM 30.2064 -81.4769 349° North 431 496 35,000  Level Jacksonville Center
07:44AM 30.3278 -81.5039 349° North 431 496 35,000  Level Jacksonville Center
07:45AM 30.4531 -81.5022 North 431 496 35,000  Level Jacksonville Center
07:46AM 30.5803 -81.4931 North 442 509 35,000  Level Jacksonville Center
07:47AM 30.7097 -81.4814 North 454 522 35,000  Level Jacksonville Center
07:48AM 30.8347 -81.4700 North 454 522 35,000  Level Jacksonville Center
07:49AM 30.9622 -81.4608 North 454 522 35,000  Level Jacksonville Center
07:50AM 31.0894 -81.4492 North 459 528 35,000  Level Jacksonville Center
07:51AM 31.2186 -81.4422 North 459 528 35,000  Level Jacksonville Center
07:52AM 31.3478 -81.4111 12° North 465 535 35,000  Level Jacksonville Center
07:53AM 31.4747 -81.3775 13° North 465 535 35,000  Level Jacksonville Center
07:54AM 31.5997 -81.3436 13° North 472 543 35,000  Level Jacksonville Center
07:55AM 31.7203 -81.3147 12° North 472 543 35,000  Level Jacksonville Center
07:56AM 31.8578 -81.2758 14° North 469 540 35,000  Level Jacksonville Center
07:57AM 31.9764 -81.2442 13° North 475 547 35,000  Level Jacksonville Center
07:58AM 32.1053 -81.2078 13° North 475 547 35,000  Level Jacksonville Center
07:59AM 32.2103 -81.1100 38° Northeast 469 540 35,000  Level Jacksonville Center
08:00AM 32.3042 -80.9606 53° Northeast 495 570 35,000  Level Jacksonville Center
08:01AM 32.3897 -80.8283 53° Northeast 502 578 35,000  Level Jacksonville Center
08:02AM 32.4650 -80.7086 53° Northeast 502 578 35,000  Level Jacksonville Center
08:03AM 32.5503 -80.5758 53° Northeast 507 583 35,000  Level Jacksonville Center
08:04AM 32.6356 -80.4456 52° Northeast 507 583 35,000  Level Jacksonville Center
08:05AM 32.7206 -80.3072 54° Northeast 507 583 35,000  Level Jacksonville Center
08:06AM 32.8156 -80.1589 53° Northeast 512 589 35,000  Level Jacksonville Center
08:07AM 32.9086 -80.0347 48° Northeast 512 589 35,000  Level Jacksonville Center
08:08AM 33.0303 -79.9589 28° Northeast 491 565 35,000  Level Jacksonville Center
08:09AM 33.1558 -79.8903 25° Northeast 485 558 35,000  Level Jacksonville Center
08:10AM 33.2794 -79.8217 25° Northeast 479 551 35,000  Level Jacksonville Center
08:11AM 33.4050 -79.7525 25° Northeast 479 551 35,000  Level Jacksonville Center
08:12AM 33.5306 -79.6833 25° Northeast 485 558 35,000  Level Jacksonville Center
08:13AM 33.6519 -79.6117 26° Northeast 485 558 35,000  Level Jacksonville Center
08:14AM 33.7772 -79.5419 25° Northeast 485 558 35,000  Level Jacksonville Center
08:15AM 33.9028 -79.4747 24° Northeast 485 558 35,000  Level Jacksonville Center
08:16AM 34.0786 -79.3728 26° Northeast 494 568 35,000  Level Washington Center
08:17AM 34.2017 -79.3056 24° Northeast 494 568 35,000  Level Washington Center
08:18AM 34.3381 -79.2211 27° Northeast 494 568 35,000  Level Washington Center
08:19AM 34.4631 -79.1511 25° Northeast 494 568 35,000  Level Washington Center
08:20AM 34.5861 -79.0808 25° Northeast 494 568 35,000  Level Washington Center
08:21AM 34.7114 -79.0078 26° Northeast 494 568 35,000  Level Washington Center
08:22AM 34.8367 -78.9347 26° Northeast 489 563 35,000  Level Washington Center
08:23AM 34.9594 -78.8636 25° Northeast 489 563 35,000  Level Washington Center
08:24AM 35.0825 -78.7900 26° Northeast 489 563 35,000  Level Washington Center
08:25AM 35.2075 -78.7189 25° Northeast 494 568 35,000 -60 Level Washington Center
08:26AM 35.3306 -78.6447 26° Northeast 494 568 34,900 -300 Descending Washington Center
08:27AM 35.4575 -78.5728 25° Northeast 495 570 34,400 -540 Descending Washington Center
08:28AM 35.5761 -78.4983 27° Northeast 489 563 33,900 -540 Descending Washington Center
08:29AM 35.6906 -78.4333 25° Northeast 489 563 33,400 -480 Descending Washington Center
08:30AM 35.8111 -78.3608 26° Northeast 484 557 33,000 -480 Descending Washington Center
08:31AM 35.9358 -78.2856 26° Northeast 484 557 32,500 -780 Descending Washington Center
08:32AM 36.0586 -78.2103 26° Northeast 484 557 31,500 -1,500 Descending Washington Center
08:33AM 36.1856 -78.1344 26° Northeast 489 563 29,500 -2,160 Descending Washington Center
08:34AM 36.3081 -78.0614 26° Northeast 489 563 27,200 -1,260 Descending Washington Center
08:35AM 36.4389 -77.9828 26° Northeast 489 563 27,000 -120 Descending Washington Center
08:36AM 36.5614 -77.9064 27° Northeast 484 557 27,000  Level Washington Center
08:37AM 36.6861 -77.8297 26° Northeast 484 557 27,000  Level Washington Center
08:38AM 36.8064 -77.7553 26° Northeast 484 557 27,000 -600 Level Washington Center
08:39AM 36.9286 -77.6783 27° Northeast 484 557 25,900 -1,020 Descending Washington Center
08:40AM 37.0447 -77.6058 26° Northeast 478 550 25,000 -480 Descending Washington Center
08:41AM 37.1542 -77.5383 26° Northeast 455 524 25,000 -60 Level Washington Center
08:42AM 37.2639 -77.4708 26° Northeast 441 507 24,900 -840 Descending Washington Center
08:43AM 37.3692 -77.4028 27° Northeast 424 488 23,400 -1,500 Descending Washington Center
08:44AM 37.4722 -77.3397 26° Northeast 419 482 22,000 -960 Descending Washington Center
08:45AM 37.5811 -77.3056 14° North 413 475 21,500 -1,080 Descending Washington Center
08:46AM 37.6858 -77.2817 10° North 395 455 19,900 -1,680 Descending Washington Center
08:47AM 37.7883 -77.2603 North 383 441 18,200 -1,440 Descending Washington Center
08:48AM 37.8908 -77.2389 North 370 426 17,100 -1,560 Descending Washington Center
08:49AM 37.9911 -77.2175 10° North 370 426 15,100 -1,860 Descending Washington Center
08:50AM 38.0875 -77.2011 North 365 420 13,400 -1,800 Descending Washington Center
08:51AM 38.1814 -77.1819 North 358 412 11,500 -1,740 Descending Washington Center
08:52AM 38.2714 -77.1600 11° North 338 389 10,000 -780 Descending Washington Center
08:53AM 38.3364 -77.1456 10° North 296 341 10,000 -300 Level Washington Center
08:54AM 38.4097 -77.1100 21° North 255 293 9,400 -1,020 Descending Washington Center
08:55AM 38.4417 -77.0603 51° Northeast 232 267 8,000 -1,440 Descending Washington Center
08:56AM 38.4900 -77.0161 36° Northeast 216 249 6,600 -1,200 Descending Washington Center
08:57AM 38.5378 -77.0275 349° North 175 201 5,600 -1,200 Descending Washington Center
08:58AM 38.5814 -77.0497 338° Northwest 165 190 4,200 -1,260 Descending Washington Center
08:59AM 38.6294 -77.0481 North 165 190 3,100 -1,020 Descending Washington Center
09:00AM 38.6833 -77.0333 12° North 180 207 2,500 -420 Descending Potomac TRACON
09:01AM 38.7167 -77.0333 360° North 167 192 2,400 -420 Descending Potomac TRACON
09:02AM 38.7667 -77.0333 360° North 144 166 1,700 -660 Descending Potomac TRACON